sensor_id;sensor_type;location;lat;lon;timestamp;pressure;altitude;pressure_sealevel;temperature;humidity
47716;BME280;33476;50.984;3.538;2023-05-09T00:01:33;101783.44;;;17.18;67.03
47716;BME280;33476;50.984;3.538;2023-05-09T00:03:59;101779.69;;;17.22;66.94
47716;BME280;33476;50.984;3.538;2023-05-09T00:06:25;101770.63;;;17.26;66.74
47716;BME280;33476;50.984;3.538;2023-05-09T00:08:52;101769.97;;;17.22;67.02
47716;BME280;33476;50.984;3.538;2023-05-09T00:11:17;101764.84;;;17.19;67.27
47716;BME280;33476;50.984;3.538;2023-05-09T00:13:43;101765.06;;;17.16;67.31
47716;BME280;33476;50.984;3.538;2023-05-09T00:16:09;101751.56;;;17.21;67.43
47716;BME280;33476;50.984;3.538;2023-05-09T00:18:35;101745.53;;;17.19;67.52
47716;BME280;33476;50.984;3.538;2023-05-09T00:21:01;101740.34;;;17.17;67.87
47716;BME280;33476;50.984;3.538;2023-05-09T00:23:31;101731.69;;;17.15;67.90
47716;BME280;33476;50.984;3.538;2023-05-09T00:25:57;101742.25;;;17.15;67.96
47716;BME280;33476;50.984;3.538;2023-05-09T00:28:23;101740.25;;;17.19;67.99
47716;BME280;33476;50.984;3.538;2023-05-09T00:30:48;101732.06;;;17.23;67.97
47716;BME280;33476;50.984;3.538;2023-05-09T00:33:13;101730.81;;;17.29;67.73
47716;BME280;33476;50.984;3.538;2023-05-09T00:35:39;101721.03;;;17.31;67.60
47716;BME280;33476;50.984;3.538;2023-05-09T00:38:04;101720.25;;;17.29;67.90
47716;BME280;33476;50.984;3.538;2023-05-09T00:40:30;101718.75;;;17.25;68.07
47716;BME280;33476;50.984;3.538;2023-05-09T00:42:57;101714.59;;;17.21;68.27
47716;BME280;33476;50.984;3.538;2023-05-09T00:45:23;101720.28;;;17.15;68.65
47716;BME280;33476;50.984;3.538;2023-05-09T00:47:48;101706.22;;;17.14;68.85
47716;BME280;33476;50.984;3.538;2023-05-09T00:50:14;101705.56;;;17.10;68.88
47716;BME280;33476;50.984;3.538;2023-05-09T00:52:40;101706.59;;;17.08;69.01
47716;BME280;33476;50.984;3.538;2023-05-09T00:55:06;101694.81;;;17.13;68.84
47716;BME280;33476;50.984;3.538;2023-05-09T00:57:32;101694.72;;;17.15;69.00
47716;BME280;33476;50.984;3.538;2023-05-09T00:59:59;101698.31;;;17.14;68.91
47716;BME280;33476;50.984;3.538;2023-05-09T01:02:25;101694.63;;;17.17;68.81
47716;BME280;33476;50.984;3.538;2023-05-09T01:04:51;101691.16;;;17.16;68.70
47716;BME280;33476;50.984;3.538;2023-05-09T01:07:34;101688.69;;;17.13;68.96
47716;BME280;33476;50.984;3.538;2023-05-09T01:13:05;101664.84;;;17.15;68.91
47716;BME280;33476;50.984;3.538;2023-05-09T01:15:50;101664.94;;;17.13;69.03
47716;BME280;33476;50.984;3.538;2023-05-09T01:21:00;101659.56;;;17.15;68.85
47716;BME280;33476;50.984;3.538;2023-05-09T01:26:04;101654.66;;;17.08;69.16
47716;BME280;33476;50.984;3.538;2023-05-09T01:28:39;101662.47;;;17.10;69.16
47716;BME280;33476;50.984;3.538;2023-05-09T01:31:08;101652.19;;;17.20;68.72
47716;BME280;33476;50.984;3.538;2023-05-09T01:33:37;101661.16;;;17.17;68.62
47716;BME280;33476;50.984;3.538;2023-05-09T01:36:05;101649.06;;;17.27;68.30
47716;BME280;33476;50.984;3.538;2023-05-09T01:38:33;101644.47;;;17.31;67.96
47716;BME280;33476;50.984;3.538;2023-05-09T01:41:01;101640.13;;;17.30;68.06
47716;BME280;33476;50.984;3.538;2023-05-09T01:43:30;101640.03;;;17.31;68.04
47716;BME280;33476;50.984;3.538;2023-05-09T01:45:58;101631.81;;;17.36;67.99
47716;BME280;33476;50.984;3.538;2023-05-09T01:48:24;101634.53;;;17.34;68.01
47716;BME280;33476;50.984;3.538;2023-05-09T01:50:52;101631.25;;;17.31;68.13
47716;BME280;33476;50.984;3.538;2023-05-09T01:53:19;101630.41;;;17.30;68.42
47716;BME280;33476;50.984;3.538;2023-05-09T01:55:47;101629.25;;;17.34;68.24
47716;BME280;33476;50.984;3.538;2023-05-09T01:58:14;101616.72;;;17.38;68.07
47716;BME280;33476;50.984;3.538;2023-05-09T02:00:41;101611.63;;;17.35;68.20
47716;BME280;33476;50.984;3.538;2023-05-09T02:03:08;101612.00;;;17.29;68.30
47716;BME280;33476;50.984;3.538;2023-05-09T02:05:33;101615.50;;;17.29;68.39
47716;BME280;33476;50.984;3.538;2023-05-09T02:08:00;101619.66;;;17.33;68.17
47716;BME280;33476;50.984;3.538;2023-05-09T02:10:27;101613.41;;;17.34;68.02
47716;BME280;33476;50.984;3.538;2023-05-09T02:12:53;101607.28;;;17.34;68.01
47716;BME280;33476;50.984;3.538;2023-05-09T02:15:20;101610.13;;;17.31;68.15
47716;BME280;33476;50.984;3.538;2023-05-09T02:17:45;101600.59;;;17.28;68.08
47716;BME280;33476;50.984;3.538;2023-05-09T02:20:10;101602.22;;;17.31;68.23
47716;BME280;33476;50.984;3.538;2023-05-09T02:22:38;101598.16;;;17.25;68.18
47716;BME280;33476;50.984;3.538;2023-05-09T02:25:05;101597.97;;;17.28;68.10
47716;BME280;33476;50.984;3.538;2023-05-09T02:27:33;101598.06;;;17.27;68.21
47716;BME280;33476;50.984;3.538;2023-05-09T02:30:02;101592.88;;;17.25;68.16
47716;BME280;33476;50.984;3.538;2023-05-09T02:32:30;101592.78;;;17.27;68.33
47716;BME280;33476;50.984;3.538;2023-05-09T02:35:00;101588.25;;;17.29;68.44
47716;BME280;33476;50.984;3.538;2023-05-09T02:37:26;101591.34;;;17.35;68.27
47716;BME280;33476;50.984;3.538;2023-05-09T02:39:53;101590.59;;;17.33;68.37
47716;BME280;33476;50.984;3.538;2023-05-09T02:42:23;101596.38;;;17.26;68.37
47716;BME280;33476;50.984;3.538;2023-05-09T02:44:53;101587.50;;;17.27;68.39
47716;BME280;33476;50.984;3.538;2023-05-09T02:47:19;101589.97;;;17.30;68.43
47716;BME280;33476;50.984;3.538;2023-05-09T02:49:44;101589.56;;;17.36;68.17
47716;BME280;33476;50.984;3.538;2023-05-09T02:52:10;101583.31;;;17.37;68.16
47716;BME280;33476;50.984;3.538;2023-05-09T02:54:36;101576.25;;;17.37;68.18
47716;BME280;33476;50.984;3.538;2023-05-09T02:57:02;101575.50;;;17.35;68.54
47716;BME280;33476;50.984;3.538;2023-05-09T02:59:27;101581.09;;;17.31;68.94
47716;BME280;33476;50.984;3.538;2023-05-09T03:01:53;101567.06;;;17.30;68.86
47716;BME280;33476;50.984;3.538;2023-05-09T03:04:18;101570.22;;;17.35;68.94
47716;BME280;33476;50.984;3.538;2023-05-09T03:06:44;101569.19;;;17.38;68.82
47716;BME280;33476;50.984;3.538;2023-05-09T03:09:09;101565.03;;;17.34;68.92
47716;BME280;33476;50.984;3.538;2023-05-09T03:11:35;101565.88;;;17.34;69.24
47716;BME280;33476;50.984;3.538;2023-05-09T03:14:01;101561.66;;;17.32;69.35
47716;BME280;33476;50.984;3.538;2023-05-09T03:16:27;101561.56;;;17.33;69.55
47716;BME280;33476;50.984;3.538;2023-05-09T03:18:53;101559.66;;;17.35;69.51
47716;BME280;33476;50.984;3.538;2023-05-09T03:21:18;101554.38;;;17.35;69.79
47716;BME280;33476;50.984;3.538;2023-05-09T03:23:43;101551.75;;;17.35;69.80
47716;BME280;33476;50.984;3.538;2023-05-09T03:26:09;101539.88;;;17.28;70.10
47716;BME280;33476;50.984;3.538;2023-05-09T03:28:34;101530.97;;;17.17;70.60
47716;BME280;33476;50.984;3.538;2023-05-09T03:30:59;101529.38;;;17.14;70.80
47716;BME280;33476;50.984;3.538;2023-05-09T03:33:25;101524.84;;;17.16;70.72
47716;BME280;33476;50.984;3.538;2023-05-09T03:35:51;101527.38;;;17.18;70.71
47716;BME280;33476;50.984;3.538;2023-05-09T03:38:16;101520.31;;;17.18;70.51
47716;BME280;33476;50.984;3.538;2023-05-09T03:40:42;101519.25;;;17.21;70.55
47716;BME280;33476;50.984;3.538;2023-05-09T03:43:07;101519.44;;;17.18;70.86
47716;BME280;33476;50.984;3.538;2023-05-09T03:45:32;101512.47;;;17.17;70.72
47716;BME280;33476;50.984;3.538;2023-05-09T03:47:59;101502.31;;;17.10;70.92
47716;BME280;33476;50.984;3.538;2023-05-09T03:50:25;101505.06;;;17.09;70.87
47716;BME280;33476;50.984;3.538;2023-05-09T03:52:50;101508.44;;;17.11;70.82
47716;BME280;33476;50.984;3.538;2023-05-09T03:55:19;101501.56;;;17.08;70.92
47716;BME280;33476;50.984;3.538;2023-05-09T03:57:44;101496.09;;;17.11;70.60
47716;BME280;33476;50.984;3.538;2023-05-09T04:00:10;101489.84;;;17.12;70.57
47716;BME280;33476;50.984;3.538;2023-05-09T04:02:36;101495.81;;;17.16;70.40
47716;BME280;33476;50.984;3.538;2023-05-09T04:05:02;101491.38;;;17.17;70.29
47716;BME280;33476;50.984;3.538;2023-05-09T04:07:27;101481.75;;;17.16;70.21
47716;BME280;33476;50.984;3.538;2023-05-09T04:09:56;101477.44;;;17.15;70.21
47716;BME280;33476;50.984;3.538;2023-05-09T04:12:22;101478.81;;;17.20;70.32
47716;BME280;33476;50.984;3.538;2023-05-09T04:14:47;101471.94;;;17.18;70.00
47716;BME280;33476;50.984;3.538;2023-05-09T04:17:12;101478.72;;;17.22;70.05
47716;BME280;33476;50.984;3.538;2023-05-09T04:19:38;101474.47;;;17.19;70.05
47716;BME280;33476;50.984;3.538;2023-05-09T04:22:03;101478.06;;;17.18;70.05
47716;BME280;33476;50.984;3.538;2023-05-09T04:24:28;101478.38;;;17.13;70.39
47716;BME280;33476;50.984;3.538;2023-05-09T04:26:54;101470.75;;;17.09;70.54
47716;BME280;33476;50.984;3.538;2023-05-09T04:29:19;101469.69;;;17.11;70.37
47716;BME280;33476;50.984;3.538;2023-05-09T04:31:45;101468.47;;;17.17;70.40
47716;BME280;33476;50.984;3.538;2023-05-09T04:34:10;101469.41;;;17.16;70.28
47716;BME280;33476;50.984;3.538;2023-05-09T04:36:36;101458.94;;;17.15;70.24
47716;BME280;33476;50.984;3.538;2023-05-09T04:39:01;101456.41;;;17.13;70.51
47716;BME280;33476;50.984;3.538;2023-05-09T04:41:26;101460.75;;;17.14;70.45
47716;BME280;33476;50.984;3.538;2023-05-09T04:43:52;101462.63;;;17.12;70.57
47716;BME280;33476;50.984;3.538;2023-05-09T04:46:18;101456.50;;;17.11;70.78
47716;BME280;33476;50.984;3.538;2023-05-09T04:48:43;101443.97;;;17.15;70.72
47716;BME280;33476;50.984;3.538;2023-05-09T04:51:08;101447.34;;;17.17;70.76
47716;BME280;33476;50.984;3.538;2023-05-09T04:53:34;101443.13;;;17.15;71.00
47716;BME280;33476;50.984;3.538;2023-05-09T04:55:59;101444.81;;;17.16;71.07
47716;BME280;33476;50.984;3.538;2023-05-09T04:58:25;101445.66;;;17.16;71.18
47716;BME280;33476;50.984;3.538;2023-05-09T05:00:51;101442.34;;;17.12;71.45
47716;BME280;33476;50.984;3.538;2023-05-09T05:03:17;101439.19;;;17.07;71.88
47716;BME280;33476;50.984;3.538;2023-05-09T05:05:42;101435.59;;;17.08;72.07
47716;BME280;33476;50.984;3.538;2023-05-09T05:08:07;101435.47;;;17.10;71.95
47716;BME280;33476;50.984;3.538;2023-05-09T05:10:33;101439.91;;;17.09;72.26
47716;BME280;33476;50.984;3.538;2023-05-09T05:12:58;101436.31;;;17.10;72.31
47716;BME280;33476;50.984;3.538;2023-05-09T05:15:24;101429.38;;;17.09;72.25
47716;BME280;33476;50.984;3.538;2023-05-09T05:17:51;101436.44;;;17.09;72.57
47716;BME280;33476;50.984;3.538;2023-05-09T05:20:19;101429.47;;;17.08;72.46
47716;BME280;33476;50.984;3.538;2023-05-09T05:22:45;101432.66;;;17.13;72.40
47716;BME280;33476;50.984;3.538;2023-05-09T05:25:10;101428.22;;;17.13;72.43
47716;BME280;33476;50.984;3.538;2023-05-09T05:27:36;101430.19;;;17.10;72.46
47716;BME280;33476;50.984;3.538;2023-05-09T05:30:02;101431.91;;;17.11;72.50
47716;BME280;33476;50.984;3.538;2023-05-09T05:32:28;101426.63;;;17.11;72.50
47716;BME280;33476;50.984;3.538;2023-05-09T05:34:53;101420.50;;;17.10;72.83
47716;BME280;33476;50.984;3.538;2023-05-09T05:37:18;101423.13;;;17.10;73.00
47716;BME280;33476;50.984;3.538;2023-05-09T05:39:44;101424.53;;;17.16;72.94
47716;BME280;33476;50.984;3.538;2023-05-09T05:42:09;101419.16;;;17.18;72.82
47716;BME280;33476;50.984;3.538;2023-05-09T05:44:35;101411.53;;;17.13;73.20
47716;BME280;33476;50.984;3.538;2023-05-09T05:47:00;101417.00;;;17.10;73.25
47716;BME280;33476;50.984;3.538;2023-05-09T05:49:25;101412.56;;;17.10;73.33
47716;BME280;33476;50.984;3.538;2023-05-09T05:51:51;101414.38;;;17.10;73.61
47716;BME280;33476;50.984;3.538;2023-05-09T05:54:16;101405.59;;;17.09;73.81
47716;BME280;33476;50.984;3.538;2023-05-09T05:56:41;101411.84;;;17.08;74.01
47716;BME280;33476;50.984;3.538;2023-05-09T05:59:07;101406.84;;;17.04;74.38
47716;BME280;33476;50.984;3.538;2023-05-09T06:01:32;101406.66;;;17.07;74.69
47716;BME280;33476;50.984;3.538;2023-05-09T06:03:57;101401.38;;;17.07;74.61
47716;BME280;33476;50.984;3.538;2023-05-09T06:06:23;101401.38;;;17.07;74.67
47716;BME280;33476;50.984;3.538;2023-05-09T06:08:50;101399.59;;;17.07;74.73
47716;BME280;33476;50.984;3.538;2023-05-09T06:11:15;101389.88;;;17.08;74.98
47716;BME280;33476;50.984;3.538;2023-05-09T06:13:41;101388.28;;;17.05;75.12
47716;BME280;33476;50.984;3.538;2023-05-09T06:16:07;101385.44;;;17.08;75.22
47716;BME280;33476;50.984;3.538;2023-05-09T06:18:36;101383.94;;;17.04;75.18
47716;BME280;33476;50.984;3.538;2023-05-09T06:21:04;101381.13;;;17.07;75.08
47716;BME280;33476;50.984;3.538;2023-05-09T06:23:29;101369.41;;;17.11;75.00
47716;BME280;33476;50.984;3.538;2023-05-09T06:25:55;101378.09;;;17.13;74.97
47716;BME280;33476;50.984;3.538;2023-05-09T06:28:20;101370.44;;;17.09;75.10
47716;BME280;33476;50.984;3.538;2023-05-09T06:30:46;101371.50;;;17.06;75.33
47716;BME280;33476;50.984;3.538;2023-05-09T06:33:11;101369.59;;;17.08;75.40
47716;BME280;33476;50.984;3.538;2023-05-09T06:35:36;101359.78;;;17.10;75.23
47716;BME280;33476;50.984;3.538;2023-05-09T06:38:02;101363.28;;;17.11;75.25
47716;BME280;33476;50.984;3.538;2023-05-09T06:40:27;101361.28;;;17.15;75.03
47716;BME280;33476;50.984;3.538;2023-05-09T06:42:53;101351.69;;;17.13;75.23
47716;BME280;33476;50.984;3.538;2023-05-09T06:45:18;101352.53;;;17.14;75.04
47716;BME280;33476;50.984;3.538;2023-05-09T06:47:43;101349.97;;;17.12;75.11
47716;BME280;33476;50.984;3.538;2023-05-09T06:50:09;101344.69;;;17.12;75.03
47716;BME280;33476;50.984;3.538;2023-05-09T06:52:34;101344.91;;;17.09;75.22
47716;BME280;33476;50.984;3.538;2023-05-09T06:55:00;101336.25;;;17.07;75.35
47716;BME280;33476;50.984;3.538;2023-05-09T06:57:25;101333.59;;;17.07;75.50
47716;BME280;33476;50.984;3.538;2023-05-09T06:59:51;101328.84;;;17.12;75.32
47716;BME280;33476;50.984;3.538;2023-05-09T07:02:16;101333.22;;;17.13;75.38
47716;BME280;33476;50.984;3.538;2023-05-09T07:04:42;101326.13;;;17.14;75.23
47716;BME280;33476;50.984;3.538;2023-05-09T07:07:07;101329.72;;;17.13;75.54
47716;BME280;33476;50.984;3.538;2023-05-09T07:09:32;101316.94;;;17.07;75.60
47716;BME280;33476;50.984;3.538;2023-05-09T07:12:01;101319.13;;;17.00;76.02
47716;BME280;33476;50.984;3.538;2023-05-09T07:14:26;101311.84;;;17.04;76.16
47716;BME280;33476;50.984;3.538;2023-05-09T07:16:52;101316.09;;;17.06;75.97
47716;BME280;33476;50.984;3.538;2023-05-09T07:19:17;101304.03;;;17.02;76.31
47716;BME280;33476;50.984;3.538;2023-05-09T07:21:43;101304.97;;;17.01;76.35
47716;BME280;33476;50.984;3.538;2023-05-09T07:24:08;101303.75;;;17.07;76.14
47716;BME280;33476;50.984;3.538;2023-05-09T07:26:34;101296.44;;;17.10;75.84
47716;BME280;33476;50.984;3.538;2023-05-09T07:29:00;101299.09;;;17.10;75.88
47716;BME280;33476;50.984;3.538;2023-05-09T07:31:25;101297.09;;;17.14;75.86
47716;BME280;33476;50.984;3.538;2023-05-09T07:33:51;101298.78;;;17.15;75.76
47716;BME280;33476;50.984;3.538;2023-05-09T07:36:16;101291.06;;;17.12;76.09
47716;BME280;33476;50.984;3.538;2023-05-09T07:38:42;101289.25;;;17.12;76.07
47716;BME280;33476;50.984;3.538;2023-05-09T07:41:07;101291.16;;;17.10;76.14
47716;BME280;33476;50.984;3.538;2023-05-09T07:43:33;101279.47;;;17.15;76.07
47716;BME280;33476;50.984;3.538;2023-05-09T07:45:58;101277.56;;;17.17;75.98
47716;BME280;33476;50.984;3.538;2023-05-09T07:48:23;101283.47;;;17.20;76.09
47716;BME280;33476;50.984;3.538;2023-05-09T07:50:49;101273.00;;;17.19;76.26
47716;BME280;33476;50.984;3.538;2023-05-09T07:53:14;101271.97;;;17.21;76.50
47716;BME280;33476;50.984;3.538;2023-05-09T07:55:40;101268.47;;;17.21;76.61
47716;BME280;33476;50.984;3.538;2023-05-09T07:58:05;101266.28;;;17.15;76.77
47716;BME280;33476;50.984;3.538;2023-05-09T08:00:31;101261.72;;;17.17;76.78
47716;BME280;33476;50.984;3.538;2023-05-09T08:02:56;101261.59;;;17.18;76.71
47716;BME280;33476;50.984;3.538;2023-05-09T08:05:21;101266.03;;;17.18;77.02
47716;BME280;33476;50.984;3.538;2023-05-09T08:07:47;101256.16;;;17.21;76.96
47716;BME280;33476;50.984;3.538;2023-05-09T08:10:12;101249.25;;;17.19;76.92
47716;BME280;33476;50.984;3.538;2023-05-09T08:12:38;101250.09;;;17.19;76.92
47716;BME280;33476;50.984;3.538;2023-05-09T08:15:04;101248.22;;;17.21;76.94
47716;BME280;33476;50.984;3.538;2023-05-09T08:17:29;101249.16;;;17.20;77.09
47716;BME280;33476;50.984;3.538;2023-05-09T08:19:55;101241.34;;;17.19;77.15
47716;BME280;33476;50.984;3.538;2023-05-09T08:22:20;101239.53;;;17.19;77.23
47716;BME280;33476;50.984;3.538;2023-05-09T08:24:46;101235.88;;;17.22;77.23
47716;BME280;33476;50.984;3.538;2023-05-09T08:27:12;101237.75;;;17.20;77.19
47716;BME280;33476;50.984;3.538;2023-05-09T08:29:41;101235.88;;;17.22;77.29
47716;BME280;33476;50.984;3.538;2023-05-09T08:32:07;101232.03;;;17.26;77.09
47716;BME280;33476;50.984;3.538;2023-05-09T08:34:32;101219.91;;;17.23;77.15
47716;BME280;33476;50.984;3.538;2023-05-09T08:37:01;101230.03;;;17.17;77.48
47716;BME280;33476;50.984;3.538;2023-05-09T08:39:27;101237.34;;;17.13;77.72
47716;BME280;33476;50.984;3.538;2023-05-09T08:41:57;101232.69;;;17.17;77.62
47716;BME280;33476;50.984;3.538;2023-05-09T08:44:22;101234.47;;;17.16;77.51
47716;BME280;33476;50.984;3.538;2023-05-09T08:46:51;101225.84;;;17.14;77.46
47716;BME280;33476;50.984;3.538;2023-05-09T08:49:19;101226.47;;;17.18;77.45
47716;BME280;33476;50.984;3.538;2023-05-09T08:51:45;101230.03;;;17.17;77.47
47716;BME280;33476;50.984;3.538;2023-05-09T08:54:12;101224.22;;;17.11;77.79
47716;BME280;33476;50.984;3.538;2023-05-09T08:56:37;101223.84;;;17.05;77.95
47716;BME280;33476;50.984;3.538;2023-05-09T08:59:03;101223.72;;;17.06;77.95
47716;BME280;33476;50.984;3.538;2023-05-09T09:01:32;101217.69;;;17.04;77.91
47716;BME280;33476;50.984;3.538;2023-05-09T09:03:57;101220.44;;;17.03;77.93
47716;BME280;33476;50.984;3.538;2023-05-09T09:06:23;101226.34;;;17.06;77.66
47716;BME280;33476;50.984;3.538;2023-05-09T09:08:51;101220.75;;;17.11;77.43
47716;BME280;33476;50.984;3.538;2023-05-09T09:11:19;101220.84;;;17.09;77.38
47716;BME280;33476;50.984;3.538;2023-05-09T09:13:46;101216.41;;;17.10;77.23
47716;BME280;33476;50.984;3.538;2023-05-09T09:16:18;101218.75;;;17.02;77.50
47716;BME280;33476;50.984;3.538;2023-05-09T09:18:45;101215.03;;;17.04;77.66
47716;BME280;33476;50.984;3.538;2023-05-09T09:21:11;101215.56;;;17.09;77.51
47716;BME280;33476;50.984;3.538;2023-05-09T09:23:41;101214.63;;;17.10;77.43
47716;BME280;33476;50.984;3.538;2023-05-09T09:26:07;101207.03;;;17.06;77.54
47716;BME280;33476;50.984;3.538;2023-05-09T09:28:33;101215.47;;;17.11;77.52
47716;BME280;33476;50.984;3.538;2023-05-09T09:30:58;101209.25;;;17.12;77.34
47716;BME280;33476;50.984;3.538;2023-05-09T09:33:25;101209.69;;;17.06;77.44
47716;BME280;33476;50.984;3.538;2023-05-09T09:35:52;101201.75;;;17.06;77.59
47716;BME280;33476;50.984;3.538;2023-05-09T09:38:19;101197.44;;;17.05;77.39
47716;BME280;33476;50.984;3.538;2023-05-09T09:43:16;101201.66;;;17.07;77.39
47716;BME280;33476;50.984;3.538;2023-05-09T09:45:42;101196.81;;;17.14;77.51
47716;BME280;33476;50.984;3.538;2023-05-09T09:48:07;101194.56;;;17.21;77.29
47716;BME280;33476;50.984;3.538;2023-05-09T09:50:33;101193.81;;;17.19;77.45
47716;BME280;33476;50.984;3.538;2023-05-09T09:52:58;101192.88;;;17.20;77.29
47716;BME280;33476;50.984;3.538;2023-05-09T09:55:28;101193.94;;;17.17;77.38
47716;BME280;33476;50.984;3.538;2023-05-09T09:57:53;101195.50;;;17.20;77.61
47716;BME280;33476;50.984;3.538;2023-05-09T10:00:25;101182.31;;;17.20;77.72
47716;BME280;33476;50.984;3.538;2023-05-09T10:02:54;101187.59;;;17.20;77.46
47716;BME280;33476;50.984;3.538;2023-05-09T10:05:24;101190.56;;;17.15;77.43
47716;BME280;33476;50.984;3.538;2023-05-09T10:07:53;101190.16;;;17.08;77.27
47716;BME280;33476;50.984;3.538;2023-05-09T10:10:19;101196.56;;;17.04;77.11
47716;BME280;33476;50.984;3.538;2023-05-09T10:12:45;101186.13;;;16.90;77.46
47716;BME280;33476;50.984;3.538;2023-05-09T10:15:11;101183.69;;;16.87;77.33
47716;BME280;33476;50.984;3.538;2023-05-09T10:17:40;101196.59;;;16.92;76.98
47716;BME280;33476;50.984;3.538;2023-05-09T10:20:06;101178.97;;;16.92;76.82
47716;BME280;33476;50.984;3.538;2023-05-09T10:22:33;101189.50;;;16.92;76.45
47716;BME280;33476;50.984;3.538;2023-05-09T10:25:12;101183.63;;;16.89;76.58
47716;BME280;33476;50.984;3.538;2023-05-09T10:27:40;101175.78;;;16.87;76.80
47716;BME280;33476;50.984;3.538;2023-05-09T10:30:21;101173.38;;;16.84;76.76
47716;BME280;33476;50.984;3.538;2023-05-09T10:32:53;101179.38;;;16.86;76.63
47716;BME280;33476;50.984;3.538;2023-05-09T10:35:25;101168.09;;;16.84;76.81
47716;BME280;33476;50.984;3.538;2023-05-09T10:37:55;101161.56;;;16.90;76.63
47716;BME280;33476;50.984;3.538;2023-05-09T10:40:23;101159.41;;;16.95;76.45
47716;BME280;33476;50.984;3.538;2023-05-09T10:42:49;101160.72;;;16.89;76.69
47716;BME280;33476;50.984;3.538;2023-05-09T10:45:15;101162.28;;;16.92;76.72
47716;BME280;33476;50.984;3.538;2023-05-09T10:47:41;101156.38;;;16.88;76.61
47716;BME280;33476;50.984;3.538;2023-05-09T10:50:09;101144.44;;;16.82;76.95
47716;BME280;33476;50.984;3.538;2023-05-09T10:53:05;101146.97;;;16.84;77.09
47716;BME280;33476;50.984;3.538;2023-05-09T10:58:29;101143.28;;;16.99;76.42
47716;BME280;33476;50.984;3.538;2023-05-09T11:01:00;101137.78;;;17.02;75.94
47716;BME280;33476;50.984;3.538;2023-05-09T11:03:27;101140.31;;;17.04;76.12
47716;BME280;33476;50.984;3.538;2023-05-09T11:05:55;101136.94;;;17.02;76.42
47716;BME280;33476;50.984;3.538;2023-05-09T11:08:28;101138.19;;;16.96;76.60
47716;BME280;33476;50.984;3.538;2023-05-09T11:10:55;101139.91;;;16.97;76.82
47716;BME280;33476;50.984;3.538;2023-05-09T11:13:29;101136.19;;;16.87;77.13
47716;BME280;33476;50.984;3.538;2023-05-09T11:18:23;101127.44;;;16.87;77.43
47716;BME280;33476;50.984;3.538;2023-05-09T11:20:48;101129.13;;;16.88;77.46
47716;BME280;33476;50.984;3.538;2023-05-09T11:23:19;101129.56;;;16.81;77.48
47716;BME280;33476;50.984;3.538;2023-05-09T11:25:47;101130.31;;;16.83;77.42
47716;BME280;33476;50.984;3.538;2023-05-09T11:28:27;101123.88;;;16.75;77.75
47716;BME280;33476;50.984;3.538;2023-05-09T11:30:53;101118.69;;;16.86;77.23
47716;BME280;33476;50.984;3.538;2023-05-09T11:33:35;101123.84;;;16.88;77.19
47716;BME280;33476;50.984;3.538;2023-05-09T11:39:23;101119.66;;;16.85;77.37
47716;BME280;33476;50.984;3.538;2023-05-09T11:41:49;101121.13;;;16.89;77.18
47716;BME280;33476;50.984;3.538;2023-05-09T11:44:16;101115.09;;;16.87;77.38
47716;BME280;33476;50.984;3.538;2023-05-09T11:46:46;101117.53;;;16.90;77.49
47716;BME280;33476;50.984;3.538;2023-05-09T11:49:13;101109.28;;;16.95;77.16
47716;BME280;33476;50.984;3.538;2023-05-09T11:51:39;101105.81;;;16.94;77.15
47716;BME280;33476;50.984;3.538;2023-05-09T11:54:05;101096.22;;;16.93;77.01
47716;BME280;33476;50.984;3.538;2023-05-09T11:56:36;101103.50;;;16.90;77.11
47716;BME280;33476;50.984;3.538;2023-05-09T11:59:02;101096.84;;;16.84;77.20
47716;BME280;33476;50.984;3.538;2023-05-09T12:01:28;101099.91;;;16.78;77.52
47716;BME280;33476;50.984;3.538;2023-05-09T12:03:56;101094.84;;;16.75;77.57
47716;BME280;33476;50.984;3.538;2023-05-09T12:06:22;101094.75;;;16.76;77.34
47716;BME280;33476;50.984;3.538;2023-05-09T12:08:47;101090.72;;;16.71;77.53
47716;BME280;33476;50.984;3.538;2023-05-09T12:11:13;101089.88;;;16.70;77.70
47716;BME280;33476;50.984;3.538;2023-05-09T12:13:46;101093.28;;;16.72;77.93
47716;BME280;33476;50.984;3.538;2023-05-09T12:16:12;101092.84;;;16.78;77.55
47716;BME280;33476;50.984;3.538;2023-05-09T12:18:43;101085.16;;;16.75;77.27
47716;BME280;33476;50.984;3.538;2023-05-09T12:21:08;101086.53;;;16.81;77.14
47716;BME280;33476;50.984;3.538;2023-05-09T12:23:34;101090.00;;;16.81;76.53
47716;BME280;33476;50.984;3.538;2023-05-09T12:26:00;101083.88;;;16.81;76.75
47716;BME280;33476;50.984;3.538;2023-05-09T12:28:25;101083.13;;;16.79;76.81
47716;BME280;33476;50.984;3.538;2023-05-09T12:30:52;101089.47;;;16.76;77.13
47716;BME280;33476;50.984;3.538;2023-05-09T12:33:18;101086.00;;;16.76;77.17
47716;BME280;33476;50.984;3.538;2023-05-09T12:35:47;101084.72;;;16.69;77.21
47716;BME280;33476;50.984;3.538;2023-05-09T12:38:20;101086.81;;;16.64;77.47
47716;BME280;33476;50.984;3.538;2023-05-09T12:40:47;101090.91;;;16.68;77.23
47716;BME280;33476;50.984;3.538;2023-05-09T12:43:13;101094.63;;;16.65;77.52
47716;BME280;33476;50.984;3.538;2023-05-09T12:45:38;101092.81;;;16.66;77.47
47716;BME280;33476;50.984;3.538;2023-05-09T12:48:04;101090.00;;;16.69;77.47
47716;BME280;33476;50.984;3.538;2023-05-09T12:50:31;101094.63;;;16.65;77.29
47716;BME280;33476;50.984;3.538;2023-05-09T12:53:01;101094.94;;;16.61;77.78
47716;BME280;33476;50.984;3.538;2023-05-09T12:55:26;101093.97;;;16.62;77.69
47716;BME280;33476;50.984;3.538;2023-05-09T12:58:01;101088.50;;;16.65;77.74
47716;BME280;33476;50.984;3.538;2023-05-09T13:00:28;101091.38;;;16.74;77.32
47716;BME280;33476;50.984;3.538;2023-05-09T13:02:53;101082.50;;;16.75;77.39
47716;BME280;33476;50.984;3.538;2023-05-09T13:05:21;101090.19;;;16.78;77.44
47716;BME280;33476;50.984;3.538;2023-05-09T13:07:51;101086.84;;;16.76;77.48